sensor_id;sensor_type;location;lat;lon;timestamp;temperature;humidity
21895;DHT22;11112;51.270;7.224;2023-02-01T00:00:25;7.70;99.90
21895;DHT22;11112;51.270;7.224;2023-02-01T00:02:54;7.70;99.90
21895;DHT22;11112;51.270;7.224;2023-02-01T00:05:23;7.70;99.90
21895;DHT22;11112;51.270;7.224;2023-02-01T00:07:50;7.70;99.90
21895;DHT22;11112;51.270;7.224;2023-02-01T00:10:18;7.70;99.90
21895;DHT22;11112;51.270;7.224;2023-02-01T00:12:46;7.70;99.90
21895;DHT22;11112;51.270;7.224;2023-02-01T00:15:15;7.70;99.90
21895;DHT22;11112;51.270;7.224;2023-02-01T00:17:42;7.70;99.90
21895;DHT22;11112;51.270;7.224;2023-02-01T00:20:12;7.70;99.90
21895;DHT22;11112;51.270;7.224;2023-02-01T00:22:43;7.70;99.90
21895;DHT22;11112;51.270;7.224;2023-02-01T00:25:10;7.70;99.90
21895;DHT22;11112;51.270;7.224;2023-02-01T00:27:38;7.70;99.90
21895;DHT22;11112;51.270;7.224;2023-02-01T00:30:07;7.70;99.90
21895;DHT22;11112;51.270;7.224;2023-02-01T00:32:35;7.70;99.90
21895;DHT22;11112;51.270;7.224;2023-02-01T00:35:03;7.70;99.90
21895;DHT22;11112;51.270;7.224;2023-02-01T00:37:36;7.70;99.90
21895;DHT22;11112;51.270;7.224;2023-02-01T00:40:05;7.70;99.90
21895;DHT22;11112;51.270;7.224;2023-02-01T00:42:36;7.70;99.90
21895;DHT22;11112;51.270;7.224;2023-02-01T00:45:04;7.70;99.90
21895;DHT22;11112;51.270;7.224;2023-02-01T00:47:33;7.70;99.90
21895;DHT22;11112;51.270;7.224;2023-02-01T00:50:04;7.70;99.90
21895;DHT22;11112;51.270;7.224;2023-02-01T00:52:32;7.70;99.90
21895;DHT22;11112;51.270;7.224;2023-02-01T00:55:01;7.70;99.90
21895;DHT22;11112;51.270;7.224;2023-02-01T00:57:28;7.70;99.90
21895;DHT22;11112;51.270;7.224;2023-02-01T00:59:55;7.70;99.90
21895;DHT22;11112;51.270;7.224;2023-02-01T01:02:24;7.70;99.90
21895;DHT22;11112;51.270;7.224;2023-02-01T01:04:53;7.70;99.90
21895;DHT22;11112;51.270;7.224;2023-02-01T01:07:20;7.70;99.90
21895;DHT22;11112;51.270;7.224;2023-02-01T01:09:48;7.70;99.90
21895;DHT22;11112;51.270;7.224;2023-02-01T01:12:16;7.70;99.90
21895;DHT22;11112;51.270;7.224;2023-02-01T01:14:45;7.70;99.90
21895;DHT22;11112;51.270;7.224;2023-02-01T01:17:12;7.70;99.90
21895;DHT22;11112;51.270;7.224;2023-02-01T01:19:40;7.70;99.90
21895;DHT22;11112;51.270;7.224;2023-02-01T01:22:07;7.70;99.90
21895;DHT22;11112;51.270;7.224;2023-02-01T01:24:36;7.70;99.90
21895;DHT22;11112;51.270;7.224;2023-02-01T01:27:03;7.70;99.90
21895;DHT22;11112;51.270;7.224;2023-02-01T01:29:33;7.70;99.90
21895;DHT22;11112;51.270;7.224;2023-02-01T01:32:00;7.70;99.90
21895;DHT22;11112;51.270;7.224;2023-02-01T01:34:28;7.70;99.90
21895;DHT22;11112;51.270;7.224;2023-02-01T01:36:55;7.70;99.90
21895;DHT22;11112;51.270;7.224;2023-02-01T01:39:22;7.70;99.90
21895;DHT22;11112;51.270;7.224;2023-02-01T01:41:49;7.70;99.90
21895;DHT22;11112;51.270;7.224;2023-02-01T01:45:02;7.70;99.90
21895;DHT22;11112;51.270;7.224;2023-02-01T01:47:34;7.70;99.90
21895;DHT22;11112;51.270;7.224;2023-02-01T01:50:06;7.70;99.90
21895;DHT22;11112;51.270;7.224;2023-02-01T01:52:36;7.70;99.90
21895;DHT22;11112;51.270;7.224;2023-02-01T01:55:05;7.70;99.90
21895;DHT22;11112;51.270;7.224;2023-02-01T01:57:36;7.70;99.90
21895;DHT22;11112;51.270;7.224;2023-02-01T02:00:10;7.70;99.90
21895;DHT22;11112;51.270;7.224;2023-02-01T02:02:39;7.70;99.90
21895;DHT22;11112;51.270;7.224;2023-02-01T02:05:10;7.80;99.90
21895;DHT22;11112;51.270;7.224;2023-02-01T02:07:41;7.70;99.90
21895;DHT22;11112;51.270;7.224;2023-02-01T02:10:11;7.70;99.90
21895;DHT22;11112;51.270;7.224;2023-02-01T02:12:41;7.70;99.90
21895;DHT22;11112;51.270;7.224;2023-02-01T02:15:12;7.80;99.90
21895;DHT22;11112;51.270;7.224;2023-02-01T02:17:46;7.70;99.90
21895;DHT22;11112;51.270;7.224;2023-02-01T02:20:45;7.70;99.90
21895;DHT22;11112;51.270;7.224;2023-02-01T02:27:19;7.70;99.90
21895;DHT22;11112;51.270;7.224;2023-02-01T02:30:11;7.70;99.90
21895;DHT22;11112;51.270;7.224;2023-02-01T02:35:52;7.70;99.90
21895;DHT22;11112;51.270;7.224;2023-02-01T02:38:29;7.70;99.90
21895;DHT22;11112;51.270;7.224;2023-02-01T02:41:09;7.70;99.90
21895;DHT22;11112;51.270;7.224;2023-02-01T02:44:09;7.70;99.90
21895;DHT22;11112;51.270;7.224;2023-02-01T02:47:02;7.60;99.90
21895;DHT22;11112;51.270;7.224;2023-02-01T02:49:56;7.60;99.90
21895;DHT22;11112;51.270;7.224;2023-02-01T02:52:47;7.60;99.90
21895;DHT22;11112;51.270;7.224;2023-02-01T02:55:37;7.60;99.90
21895;DHT22;11112;51.270;7.224;2023-02-01T02:58:07;7.60;99.90
21895;DHT22;11112;51.270;7.224;2023-02-01T03:00:53;7.60;99.90
21895;DHT22;11112;51.270;7.224;2023-02-01T03:03:39;7.60;99.90
21895;DHT22;11112;51.270;7.224;2023-02-01T03:06:25;7.60;99.90
21895;DHT22;11112;51.270;7.224;2023-02-01T03:08:54;7.60;99.90
21895;DHT22;11112;51.270;7.224;2023-02-01T03:11:24;7.70;99.90
21895;DHT22;11112;51.270;7.224;2023-02-01T03:14:16;7.70;99.90
21895;DHT22;11112;51.270;7.224;2023-02-01T03:16:47;7.70;99.90
21895;DHT22;11112;51.270;7.224;2023-02-01T03:19:22;7.60;99.90
21895;DHT22;11112;51.270;7.224;2023-02-01T03:21:56;7.60;99.90
21895;DHT22;11112;51.270;7.224;2023-02-01T03:24:31;7.60;99.90
21895;DHT22;11112;51.270;7.224;2023-02-01T03:27:03;7.60;99.90
21895;DHT22;11112;51.270;7.224;2023-02-01T03:29:38;7.50;99.90
21895;DHT22;11112;51.270;7.224;2023-02-01T03:32:08;7.60;99.90
21895;DHT22;11112;51.270;7.224;2023-02-01T03:34:37;7.60;99.90
21895;DHT22;11112;51.270;7.224;2023-02-01T03:37:08;7.50;99.90
21895;DHT22;11112;51.270;7.224;2023-02-01T03:39:41;7.50;99.90
21895;DHT22;11112;51.270;7.224;2023-02-01T03:42:16;7.50;99.90
21895;DHT22;11112;51.270;7.224;2023-02-01T03:44:49;7.60;99.90
21895;DHT22;11112;51.270;7.224;2023-02-01T03:47:22;7.50;99.90
21895;DHT22;11112;51.270;7.224;2023-02-01T03:49:53;7.50;99.90
21895;DHT22;11112;51.270;7.224;2023-02-01T03:52:28;7.50;99.90
21895;DHT22;11112;51.270;7.224;2023-02-01T03:55:00;7.60;99.90
21895;DHT22;11112;51.270;7.224;2023-02-01T03:57:31;7.50;99.90
21895;DHT22;11112;51.270;7.224;2023-02-01T04:00:05;7.50;99.90
21895;DHT22;11112;51.270;7.224;2023-02-01T04:02:34;7.50;99.90
21895;DHT22;11112;51.270;7.224;2023-02-01T04:05:01;7.60;99.90
21895;DHT22;11112;51.270;7.224;2023-02-01T04:07:32;7.50;99.90
21895;DHT22;11112;51.270;7.224;2023-02-01T04:09:59;7.50;99.90
21895;DHT22;11112;51.270;7.224;2023-02-01T04:12:27;7.50;99.90
21895;DHT22;11112;51.270;7.224;2023-02-01T04:14:55;7.50;99.90
21895;DHT22;11112;51.270;7.224;2023-02-01T04:17:22;7.50;99.90
21895;DHT22;11112;51.270;7.224;2023-02-01T04:19:49;7.50;99.90
21895;DHT22;11112;51.270;7.224;2023-02-01T04:22:16;7.50;99.90
21895;DHT22;11112;51.270;7.224;2023-02-01T04:24:48;7.50;99.90
21895;DHT22;11112;51.270;7.224;2023-02-01T04:27:15;7.50;99.90
21895;DHT22;11112;51.270;7.224;2023-02-01T04:29:43;7.50;99.90
21895;DHT22;11112;51.270;7.224;2023-02-01T04:32:11;7.50;99.90
21895;DHT22;11112;51.270;7.224;2023-02-01T04:34:38;7.50;99.90
21895;DHT22;11112;51.270;7.224;2023-02-01T04:37:06;7.50;99.90
21895;DHT22;11112;51.270;7.224;2023-02-01T04:39:33;7.50;99.90
21895;DHT22;11112;51.270;7.224;2023-02-01T04:42:02;7.50;99.90
21895;DHT22;11112;51.270;7.224;2023-02-01T04:44:30;7.50;99.90
21895;DHT22;11112;51.270;7.224;2023-02-01T04:46:57;7.50;99.90
21895;DHT22;11112;51.270;7.224;2023-02-01T04:49:25;7.50;99.90
21895;DHT22;11112;51.270;7.224;2023-02-01T04:51:52;7.50;99.90
21895;DHT22;11112;51.270;7.224;2023-02-01T04:54:19;7.50;99.90
21895;DHT22;11112;51.270;7.224;2023-02-01T04:56:47;7.50;99.90
21895;DHT22;11112;51.270;7.224;2023-02-01T04:59:16;7.50;99.90
21895;DHT22;11112;51.270;7.224;2023-02-01T05:01:43;7.50;99.90
21895;DHT22;11112;51.270;7.224;2023-02-01T05:04:10;7.50;99.90
21895;DHT22;11112;51.270;7.224;2023-02-01T05:06:38;7.50;99.90
21895;DHT22;11112;51.270;7.224;2023-02-01T05:09:05;7.50;99.90
21895;DHT22;11112;51.270;7.224;2023-02-01T05:11:32;7.50;99.90
21895;DHT22;11112;51.270;7.224;2023-02-01T05:14:18;7.50;99.90
21895;DHT22;11112;51.270;7.224;2023-02-01T05:16:46;7.50;99.90
21895;DHT22;11112;51.270;7.224;2023-02-01T05:19:13;7.50;99.90
21895;DHT22;11112;51.270;7.224;2023-02-01T05:21:40;7.50;99.90
21895;DHT22;11112;51.270;7.224;2023-02-01T05:24:08;7.50;99.90
21895;DHT22;11112;51.270;7.224;2023-02-01T05:26:48;7.50;99.90
21895;DHT22;11112;51.270;7.224;2023-02-01T05:29:18;7.50;99.90
21895;DHT22;11112;51.270;7.224;2023-02-01T05:31:48;7.50;99.90
21895;DHT22;11112;51.270;7.224;2023-02-01T05:34:18;7.50;99.90
21895;DHT22;11112;51.270;7.224;2023-02-01T05:36:46;7.50;99.90
21895;DHT22;11112;51.270;7.224;2023-02-01T05:39:14;7.50;99.90
21895;DHT22;11112;51.270;7.224;2023-02-01T05:41:41;7.50;99.90
21895;DHT22;11112;51.270;7.224;2023-02-01T05:44:09;7.50;99.90
21895;DHT22;11112;51.270;7.224;2023-02-01T05:46:41;7.50;99.90
21895;DHT22;11112;51.270;7.224;2023-02-01T05:49:08;7.50;99.90
21895;DHT22;11112;51.270;7.224;2023-02-01T05:51:36;7.50;99.90
21895;DHT22;11112;51.270;7.224;2023-02-01T05:54:04;7.50;99.90
21895;DHT22;11112;51.270;7.224;2023-02-01T05:56:31;7.50;99.90
21895;DHT22;11112;51.270;7.224;2023-02-01T05:58:58;7.50;99.90
21895;DHT22;11112;51.270;7.224;2023-02-01T06:01:25;7.50;99.90
21895;DHT22;11112;51.270;7.224;2023-02-01T06:03:55;7.50;99.90
21895;DHT22;11112;51.270;7.224;2023-02-01T06:06:22;7.40;99.90
21895;DHT22;11112;51.270;7.224;2023-02-01T06:08:49;7.40;99.90
21895;DHT22;11112;51.270;7.224;2023-02-01T06:11:18;7.40;99.90
21895;DHT22;11112;51.270;7.224;2023-02-01T06:13:45;7.40;99.90
21895;DHT22;11112;51.270;7.224;2023-02-01T06:16:13;7.50;99.90
21895;DHT22;11112;51.270;7.224;2023-02-01T06:18:42;7.50;99.90
21895;DHT22;11112;51.270;7.224;2023-02-01T06:21:11;7.50;99.90
21895;DHT22;11112;51.270;7.224;2023-02-01T06:23:41;7.50;99.90
21895;DHT22;11112;51.270;7.224;2023-02-01T06:26:10;7.50;99.90
21895;DHT22;11112;51.270;7.224;2023-02-01T06:28:37;7.50;99.90
21895;DHT22;11112;51.270;7.224;2023-02-01T06:31:07;7.50;99.90
21895;DHT22;11112;51.270;7.224;2023-02-01T06:33:35;7.50;99.90
21895;DHT22;11112;51.270;7.224;2023-02-01T06:36:04;7.50;99.90
21895;DHT22;11112;51.270;7.224;2023-02-01T06:38:35;7.50;99.90
21895;DHT22;11112;51.270;7.224;2023-02-01T06:41:04;7.50;99.90
21895;DHT22;11112;51.270;7.224;2023-02-01T06:43:34;7.40;99.90
21895;DHT22;11112;51.270;7.224;2023-02-01T06:46:04;7.40;99.90
21895;DHT22;11112;51.270;7.224;2023-02-01T06:48:32;7.40;99.90
21895;DHT22;11112;51.270;7.224;2023-02-01T06:51:12;7.50;99.90
21895;DHT22;11112;51.270;7.224;2023-02-01T06:53:47;7.40;99.90
21895;DHT22;11112;51.270;7.224;2023-02-01T06:56:14;7.40;99.90
21895;DHT22;11112;51.270;7.224;2023-02-01T06:58:42;7.40;99.90
21895;DHT22;11112;51.270;7.224;2023-02-01T07:01:11;7.40;99.90
21895;DHT22;11112;51.270;7.224;2023-02-01T07:03:39;7.40;99.90
21895;DHT22;11112;51.270;7.224;2023-02-01T07:06:07;7.40;99.90
21895;DHT22;11112;51.270;7.224;2023-02-01T07:09:09;7.40;99.90
21895;DHT22;11112;51.270;7.224;2023-02-01T07:11:50;7.50;99.90
21895;DHT22;11112;51.270;7.224;2023-02-01T07:14:18;7.50;99.90
21895;DHT22;11112;51.270;7.224;2023-02-01T07:16:47;7.50;99.90
21895;DHT22;11112;51.270;7.224;2023-02-01T07:19:24;7.50;99.90
21895;DHT22;11112;51.270;7.224;2023-02-01T07:21:51;7.50;99.90
21895;DHT22;11112;51.270;7.224;2023-02-01T07:24:22;7.40;99.90
21895;DHT22;11112;51.270;7.224;2023-02-01T07:26:52;7.40;99.90
21895;DHT22;11112;51.270;7.224;2023-02-01T07:29:20;7.50;99.90
21895;DHT22;11112;51.270;7.224;2023-02-01T07:31:48;7.50;99.90
21895;DHT22;11112;51.270;7.224;2023-02-01T07:34:16;7.50;99.90
21895;DHT22;11112;51.270;7.224;2023-02-01T07:36:49;7.50;99.90
21895;DHT22;11112;51.270;7.224;2023-02-01T07:39:17;7.50;99.90
21895;DHT22;11112;51.270;7.224;2023-02-01T07:41:46;7.50;99.90
21895;DHT22;11112;51.270;7.224;2023-02-01T07:44:15;7.40;99.90
21895;DHT22;11112;51.270;7.224;2023-02-01T07:46:48;7.40;99.90
21895;DHT22;11112;51.270;7.224;2023-02-01T07:49:15;7.50;99.90
21895;DHT22;11112;51.270;7.224;2023-02-01T07:51:43;7.40;99.90
21895;DHT22;11112;51.270;7.224;2023-02-01T07:54:12;7.40;99.90
21895;DHT22;11112;51.270;7.224;2023-02-01T07:56:42;7.40;99.90
21895;DHT22;11112;51.270;7.224;2023-02-01T07:59:19;7.40;99.90
21895;DHT22;11112;51.270;7.224;2023-02-01T08:01:48;7.40;99.90
21895;DHT22;11112;51.270;7.224;2023-02-01T08:04:14;7.50;99.90
21895;DHT22;11112;51.270;7.224;2023-02-01T08:06:42;7.40;99.90
21895;DHT22;11112;51.270;7.224;2023-02-01T08:09:10;7.40;99.90
21895;DHT22;11112;51.270;7.224;2023-02-01T08:11:37;7.40;99.90
21895;DHT22;11112;51.270;7.224;2023-02-01T08:14:05;7.50;99.90
21895;DHT22;11112;51.270;7.224;2023-02-01T08:16:34;7.50;99.90
21895;DHT22;11112;51.270;7.224;2023-02-01T08:19:07;7.50;99.90
21895;DHT22;11112;51.270;7.224;2023-02-01T08:21:48;7.50;99.90
21895;DHT22;11112;51.270;7.224;2023-02-01T08:24:16;7.50;99.90
21895;DHT22;11112;51.270;7.224;2023-02-01T08:26:43;7.50;99.90
21895;DHT22;11112;51.270;7.224;2023-02-01T08:29:10;7.50;99.90
21895;DHT22;11112;51.270;7.224;2023-02-01T08:31:41;7.50;99.90
21895;DHT22;11112;51.270;7.224;2023-02-01T08:34:09;7.50;99.90
21895;DHT22;11112;51.270;7.224;2023-02-01T08:36:37;7.50;99.90
21895;DHT22;11112;51.270;7.224;2023-02-01T08:39:06;7.50;99.90
21895;DHT22;11112;51.270;7.224;2023-02-01T08:41:34;7.50;99.90
21895;DHT22;11112;51.270;7.224;2023-02-01T08:44:02;7.50;99.90
21895;DHT22;11112;51.270;7.224;2023-02-01T08:46:29;7.50;99.90
21895;DHT22;11112;51.270;7.224;2023-02-01T08:48:59;7.50;99.90
21895;DHT22;11112;51.270;7.224;2023-02-01T08:51:26;7.50;99.90
21895;DHT22;11112;51.270;7.224;2023-02-01T08:53:53;7.50;99.90
21895;DHT22;11112;51.270;7.224;2023-02-01T08:56:21;7.50;99.90
21895;DHT22;11112;51.270;7.224;2023-02-01T08:58:51;7.50;99.90
21895;DHT22;11112;51.270;7.224;2023-02-01T09:12:34;7.60;99.90
21895;DHT22;11112;51.270;7.224;2023-02-01T09:15:05;7.60;99.90
21895;DHT22;11112;51.270;7.224;2023-02-01T09:17:34;7.60;99.90
21895;DHT22;11112;51.270;7.224;2023-02-01T09:20:02;7.60;99.90
21895;DHT22;11112;51.270;7.224;2023-02-01T09:22:31;7.50;99.90
21895;DHT22;11112;51.270;7.224;2023-02-01T09:24:58;7.50;99.90
21895;DHT22;11112;51.270;7.224;2023-02-01T09:27:25;7.60;99.90
21895;DHT22;11112;51.270;7.224;2023-02-01T09:29:56;7.60;99.90
21895;DHT22;11112;51.270;7.224;2023-02-01T09:32:23;7.60;99.90
21895;DHT22;11112;51.270;7.224;2023-02-01T09:34:52;7.60;99.90
21895;DHT22;11112;51.270;7.224;2023-02-01T09:37:20;7.60;99.90
21895;DHT22;11112;51.270;7.224;2023-02-01T09:39:50;7.60;99.90
21895;DHT22;11112;51.270;7.224;2023-02-01T09:42:30;7.50;99.90
21895;DHT22;11112;51.270;7.224;2023-02-01T09:45:18;7.60;99.90
21895;DHT22;11112;51.270;7.224;2023-02-01T09:47:55;7.50;99.90
21895;DHT22;11112;51.270;7.224;2023-02-01T09:50:32;7.60;99.90
21895;DHT22;11112;51.270;7.224;2023-02-01T09:53:03;7.60;99.90
21895;DHT22;11112;51.270;7.224;2023-02-01T09:55:38;7.60;99.90
21895;DHT22;11112;51.270;7.224;2023-02-01T09:58:11;7.60;99.90
21895;DHT22;11112;51.270;7.224;2023-02-01T10:00:51;7.60;99.90
21895;DHT22;11112;51.270;7.224;2023-02-01T10:03:20;7.60;99.90
21895;DHT22;11112;51.270;7.224;2023-02-01T10:09:22;7.60;99.90
21895;DHT22;11112;51.270;7.224;2023-02-01T10:15:19;7.60;99.90
21895;DHT22;11112;51.270;7.224;2023-02-01T10:18:04;7.60;99.90
21895;DHT22;11112;51.270;7.224;2023-02-01T10:20:52;7.60;99.90
21895;DHT22;11112;51.270;7.224;2023-02-01T10:23:38;7.60;99.90
21895;DHT22;11112;51.270;7.224;2023-02-01T10:26:19;7.70;99.90
21895;DHT22;11112;51.270;7.224;2023-02-01T10:28:52;7.60;99.90
21895;DHT22;11112;51.270;7.224;2023-02-01T10:31:25;7.60;99.90
21895;DHT22;11112;51.270;7.224;2023-02-01T10:33:57;7.70;99.90
21895;DHT22;11112;51.270;7.224;2023-02-01T10:36:28;7.70;99.90
21895;DHT22;11112;51.270;7.224;2023-02-01T10:38:59;7.70;99.90
21895;DHT22;11112;51.270;7.224;2023-02-01T10:41:33;7.70;99.90
21895;DHT22;11112;51.270;7.224;2023-02-01T10:44:04;7.60;99.90
21895;DHT22;11112;51.270;7.224;2023-02-01T10:46:34;7.60;99.90
21895;DHT22;11112;51.270;7.224;2023-02-01T10:49:04;7.70;99.90
21895;DHT22;11112;51.270;7.224;2023-02-01T10:51:42;7.70;99.90
21895;DHT22;11112;51.270;7.224;2023-02-01T10:54:15;7.60;99.90
21895;DHT22;11112;51.270;7.224;2023-02-01T10:56:46;7.60;99.90
21895;DHT22;11112;51.270;7.224;2023-02-01T10:59:19;7.60;99.90
21895;DHT22;11112;51.270;7.224;2023-02-01T11:01:57;7.60;99.90
21895;DHT22;11112;51.270;7.224;2023-02-01T11:04:26;7.60;99.90
21895;DHT22;11112;51.270;7.224;2023-02-01T11:07:05;7.60;99.90
21895;DHT22;11112;51.270;7.224;2023-02-01T11:09:37;7.60;99.90
21895;DHT22;11112;51.270;7.224;2023-02-01T11:12:23;7.70;99.90
21895;DHT22;11112;51.270;7.224;2023-02-01T11:15:01;7.60;99.90
21895;DHT22;11112;51.270;7.224;2023-02-01T11:17:42;7.60;99.90
21895;DHT22;11112;51.270;7.224;2023-02-01T11:20:36;7.60;99.90
21895;DHT22;11112;51.270;7.224;2023-02-01T11:23:11;7.60;99.90
21895;DHT22;11112;51.270;7.224;2023-02-01T11:26:00;7.60;99.90
21895;DHT22;11112;51.270;7.224;2023-02-01T11:28:31;7.60;99.90
21895;DHT22;11112;51.270;7.224;2023-02-01T11:31:12;7.60;99.90
21895;DHT22;11112;51.270;7.224;2023-02-01T11:33:48;7.60;99.90
21895;DHT22;11112;51.270;7.224;2023-02-01T11:36:20;7.60;99.90
21895;DHT22;11112;51.270;7.224;2023-02-01T11:38:53;7.70;99.90
21895;DHT22;11112;51.270;7.224;2023-02-01T11:41:34;7.70;99.90
21895;DHT22;11112;51.270;7.224;2023-02-01T11:44:21;7.70;99.90
21895;DHT22;11112;51.270;7.224;2023-02-01T11:46:55;7.70;99.90
21895;DHT22;11112;51.270;7.224;2023-02-01T11:49:24;7.70;99.90
21895;DHT22;11112;51.270;7.224;2023-02-01T11:52:05;7.70;99.90
21895;DHT22;11112;51.270;7.224;2023-02-01T11:54:58;7.70;99.90
21895;DHT22;11112;51.270;7.224;2023-02-01T11:57:42;7.70;99.90
21895;DHT22;11112;51.270;7.224;2023-02-01T12:00:23;7.70;99.90
21895;DHT22;11112;51.270;7.224;2023-02-01T12:03:35;7.70;99.90
21895;DHT22;11112;51.270;7.224;2023-02-01T12:06:34;7.80;99.90
21895;DHT22;11112;51.270;7.224;2023-02-01T12:09:23;7.80;99.90
21895;DHT22;11112;51.270;7.224;2023-02-01T12:12:03;7.80;99.90
21895;DHT22;11112;51.270;7.224;2023-02-01T12:14:51;7.70;99.90
21895;DHT22;11112;51.270;7.224;2023-02-01T12:17:44;7.80;99.90
21895;DHT22;11112;51.270;7.224;2023-02-01T12:20:39;7.80;99.90
21895;DHT22;11112;51.270;7.224;2023-02-01T12:23:24;7.80;99.90
21895;DHT22;11112;51.270;7.224;2023-02-01T12:26:19;7.80;99.90
21895;DHT22;11112;51.270;7.224;2023-02-01T12:29:13;7.80;99.90
21895;DHT22;11112;51.270;7.224;2023-02-01T12:32:00;7.70;99.90
21895;DHT22;11112;51.270;7.224;2023-02-01T12:34:50;7.70;99.90
21895;DHT22;11112;51.270;7.224;2023-02-01T12:37:51;7.70;99.90
21895;DHT22;11112;51.270;7.224;2023-02-01T12:40:41;7.80;99.90
21895;DHT22;11112;51.270;7.224;2023-02-01T12:43:22;7.80;99.90
21895;DHT22;11112;51.270;7.224;2023-02-01T12:46:05;7.80;99.90
21895;DHT22;11112;51.270;7.224;2023-02-01T12:48:39;7.80;99.90
21895;DHT22;11112;51.270;7.224;2023-02-01T12:51:12;7.80;99.90
21895;DHT22;11112;51.270;7.224;2023-02-01T12:53:50;7.70;99.90
21895;DHT22;11112;51.270;7.224;2023-02-01T12:56:22;7.80;99.90
21895;DHT22;11112;51.270;7.224;2023-02-01T12:58:53;7.80;99.90
21895;DHT22;11112;51.270;7.224;2023-02-01T13:01:32;7.80;99.90
21895;DHT22;11112;51.270;7.224;2023-02-01T13:04:05;7.80;99.90
21895;DHT22;11112;51.270;7.224;2023-02-01T13:06:39;7.80;99.90
21895;DHT22;11112;51.270;7.224;2023-02-01T13:09:21;7.80;99.90
21895;DHT22;11112;51.270;7.224;2023-02-01T13:11:55;7.80;99.90
21895;DHT22;11112;51.270;7.224;2023-02-01T13:14:31;7.80;99.90
21895;DHT22;11112;51.270;7.224;2023-02-01T13:17:03;7.80;99.90
21895;DHT22;11112;51.270;7.224;2023-02-01T13:19:39;7.80;99.90
21895;DHT22;11112;51.270;7.224;2023-02-01T13:22:15;7.80;99.90
21895;DHT22;11112;51.270;7.224;2023-02-01T13:24:56;7.80;99.90
21895;DHT22;11112;51.270;7.224;2023-02-01T13:27:27;7.80;99.90
21895;DHT22;11112;51.270;7.224;2023-02-01T13:29:58;7.80;99.90
21895;DHT22;11112;51.270;7.224;2023-02-01T13:35:47;7.80;99.90
21895;DHT22;11112;51.270;7.224;2023-02-01T13:38:53;7.80;99.90
21895;DHT22;11112;51.270;7.224;2023-02-01T13:41:40;7.80;99.90
21895;DHT22;11112;51.270;7.224;2023-02-01T13:44:13;7.80;99.90
21895;DHT22;11112;51.270;7.224;2023-02-01T13:47:03;7.80;99.90
21895;DHT22;11112;51.270;7.224;2023-02-01T13:49:40;7.80;99.90
21895;DHT22;11112;51.270;7.224;2023-02-01T13:52:32;7.90;99.90
21895;DHT22;11112;51.270;7.224;2023-02-01T13:55:23;7.80;99.90
21895;DHT22;11112;51.270;7.224;2023-02-01T13:58:06;7.90;99.90
21895;DHT22;11112;51.270;7.224;2023-02-01T14:00:44;7.80;99.90
21895;DHT22;11112;51.270;7.224;2023-02-01T14:03:46;7.90;99.90
21895;DHT22;11112;51.270;7.224;2023-02-01T14:09:18;7.80;99.90
21895;DHT22;11112;51.270;7.224;2023-02-01T14:11:49;7.80;99.90
21895;DHT22;11112;51.270;7.224;2023-02-01T14:14:47;7.80;99.90
21895;DHT22;11112;51.270;7.224;2023-02-01T14:17:39;7.80;99.90
21895;DHT22;11112;51.270;7.224;2023-02-01T14:23:29;7.80;99.90
21895;DHT22;11112;51.270;7.224;2023-02-01T14:26:18;7.80;99.90
21895;DHT22;11112;51.270;7.224;2023-02-01T14:28:52;7.90;99.90
21895;DHT22;11112;51.270;7.224;2023-02-01T14:31:40;7.90;99.90
21895;DHT22;11112;51.270;7.224;2023-02-01T14:34:17;7.90;99.90
21895;DHT22;11112;51.270;7.224;2023-02-01T14:36:51;7.90;99.90
21895;DHT22;11112;51.270;7.224;2023-02-01T14:39:30;7.90;99.90
21895;DHT22;11112;51.270;7.224;2023-02-01T14:42:03;7.90;99.90
21895;DHT22;11112;51.270;7.224;2023-02-01T14:44:36;7.90;99.90
21895;DHT22;11112;51.270;7.224;2023-02-01T14:50:25;8.00;99.90
21895;DHT22;11112;51.270;7.224;2023-02-01T14:53:15;8.00;99.90
21895;DHT22;11112;51.270;7.224;2023-02-01T14:55:48;7.90;99.90
21895;DHT22;11112;51.270;7.224;2023-02-01T14:58:25;7.90;99.90
21895;DHT22;11112;51.270;7.224;2023-02-01T15:01:01;7.90;99.90
21895;DHT22;11112;51.270;7.224;2023-02-01T15:03:45;7.90;99.90
21895;DHT22;11112;51.270;7.224;2023-02-01T15:06:26;8.00;99.90
21895;DHT22;11112;51.270;7.224;2023-02-01T15:09:02;8.00;99.90
21895;DHT22;11112;51.270;7.224;2023-02-01T15:11:31;8.00;99.90
21895;DHT22;11112;51.270;7.224;2023-02-01T15:14:00;8.00;99.90
21895;DHT22;11112;51.270;7.224;2023-02-01T15:16:27;8.00;99.90
21895;DHT22;11112;51.270;7.224;2023-02-01T15:19:10;8.00;99.90
21895;DHT22;11112;51.270;7.224;2023-02-01T15:21:47;8.00;99.90
21895;DHT22;11112;51.270;7.224;2023-02-01T15:24:22;8.00;99.90
21895;DHT22;11112;51.270;7.224;2023-02-01T15:26:50;8.00;99.90
21895;DHT22;11112;51.270;7.224;2023-02-01T15:29:18;8.00;99.90
21895;DHT22;11112;51.270;7.224;2023-02-01T15:31:49;8.10;99.90
21895;DHT22;11112;51.270;7.224;2023-02-01T15:34:20;8.00;99.90
21895;DHT22;11112;51.270;7.224;2023-02-01T15:36:48;8.00;99.90
21895;DHT22;11112;51.270;7.224;2023-02-01T15:39:34;8.00;99.90
21895;DHT22;11112;51.270;7.224;2023-02-01T15:42:11;8.10;99.90
21895;DHT22;11112;51.270;7.224;2023-02-01T15:44:45;8.10;99.90
21895;DHT22;11112;51.270;7.224;2023-02-01T15:47:17;8.10;99.90
21895;DHT22;11112;51.270;7.224;2023-02-01T15:49:50;8.10;99.90
21895;DHT22;11112;51.270;7.224;2023-02-01T15:52:26;8.10;99.90
21895;DHT22;11112;51.270;7.224;2023-02-01T15:55:05;8.10;99.90
21895;DHT22;11112;51.270;7.224;2023-02-01T15:57:40;8.10;99.90
21895;DHT22;11112;51.270;7.224;2023-02-01T16:00:21;8.10;99.90
21895;DHT22;11112;51.270;7.224;2023-02-01T16:02:53;8.10;99.90
21895;DHT22;11112;51.270;7.224;2023-02-01T16:05:37;8.10;99.90
21895;DHT22;11112;51.270;7.224;2023-02-01T16:08:11;8.10;99.90
21895;DHT22;11112;51.270;7.224;2023-02-01T16:10:46;8.10;99.90
21895;DHT22;11112;51.270;7.224;2023-02-01T16:13:17;8.10;99.90
21895;DHT22;11112;51.270;7.224;2023-02-01T16:15:47;8.10;99.90
21895;DHT22;11112;51.270;7.224;2023-02-01T16:18:15;8.10;99.90
21895;DHT22;11112;51.270;7.224;2023-02-01T16:20:46;8.10;99.90
21895;DHT22;11112;51.270;7.224;2023-02-01T16:23:16;8.10;99.90
21895;DHT22;11112;51.270;7.224;2023-02-01T16:25:46;8.10;99.90
21895;DHT22;11112;51.270;7.224;2023-02-01T16:28:14;8.10;99.90
21895;DHT22;11112;51.270;7.224;2023-02-01T16:30:41;8.10;99.90
21895;DHT22;11112;51.270;7.224;2023-02-01T16:33:13;8.10;99.90
21895;DHT22;11112;51.270;7.224;2023-02-01T16:35:46;8.10;99.90
21895;DHT22;11112;51.270;7.224;2023-02-01T16:38:16;8.10;99.90
21895;DHT22;11112;51.270;7.224;2023-02-01T16:40:47;8.10;99.90
21895;DHT22;11112;51.270;7.224;2023-02-01T16:43:19;8.10;99.90
21895;DHT22;11112;51.270;7.224;2023-02-01T16:45:49;8.10;99.90
21895;DHT22;11112;51.270;7.224;2023-02-01T16:48:20;8.10;99.90
21895;DHT22;11112;51.270;7.224;2023-02-01T16:50:53;8.10;99.90
21895;DHT22;11112;51.270;7.224;2023-02-01T16:53:26;8.10;99.90
21895;DHT22;11112;51.270;7.224;2023-02-01T16:55:55;8.10;99.90
21895;DHT22;11112;51.270;7.224;2023-02-01T16:58:24;8.10;99.90
21895;DHT22;11112;51.270;7.224;2023-02-01T17:00:52;8.10;99.90
21895;DHT22;11112;51.270;7.224;2023-02-01T17:03:20;8.10;99.90